createdAt,value
2019-02-17T00:00:39.334Z,90.08
2019-02-17T00:01:39.300Z,89.97
2019-02-17T00:02:39.333Z,90.08
2019-02-17T00:03:39.224Z,90.28
2019-02-17T00:04:39.250Z,89.76
2019-02-17T00:05:39.198Z,90.28
2019-02-17T00:06:39.306Z,89.97
2019-02-17T00:07:39.212Z,90.08
2019-02-17T00:08:39.272Z,90.28
2019-02-17T00:09:39.150Z,89.76
2019-02-17T00:10:39.189Z,90.08
2019-02-17T00:11:39.171Z,90.08
2019-02-17T00:12:39.211Z,90.18
2019-02-17T00:13:39.107Z,90.08
2019-02-17T00:14:39.211Z,89.97
2019-02-17T00:15:39.082Z,90.08
2019-02-17T00:16:39.150Z,89.14
2019-02-17T00:17:39.097Z,90.28
2019-02-17T00:18:39.223Z,89.87
2019-02-17T00:19:39.041Z,90.18
2019-02-17T00:20:39.160Z,90.08
2019-02-17T00:21:39.013Z,90.50
2019-02-17T00:22:39.109Z,90.39
2019-02-17T00:23:38.998Z,90.03
2019-02-17T00:24:39.078Z,89.87
2019-02-17T00:25:38.974Z,89.97
2019-02-17T00:26:38.989Z,89.93
2019-02-17T00:27:38.974Z,89.20
2019-02-17T00:28:39.003Z,88.99
2019-02-17T00:29:38.924Z,89.14
2019-02-17T00:30:39.020Z,88.89
2019-02-17T00:31:38.906Z,88.89
2019-02-17T00:32:38.956Z,88.68
2019-02-17T00:33:38.876Z,88.06
2019-02-17T00:34:38.942Z,88.78
2019-02-17T00:35:38.866Z,88.89
2019-02-17T00:36:38.954Z,88.82
2019-02-17T00:37:38.863Z,88.99
2019-02-17T00:38:38.868Z,89.87
2019-02-17T00:39:38.812Z,89.72
2019-02-17T00:40:38.881Z,89.76
2019-02-17T00:41:38.794Z,89.87
2019-02-17T00:42:38.919Z,89.24
2019-02-17T00:43:38.795Z,89.24
2019-02-17T00:44:38.808Z,89.97
2019-02-17T00:45:38.752Z,90.01
2019-02-17T00:46:38.820Z,90.18
2019-02-17T00:47:38.759Z,89.97
2019-02-17T00:48:38.863Z,90.70
2019-02-17T00:49:38.705Z,90.91
2019-02-17T00:50:38.741Z,90.91
2019-02-17T00:51:38.690Z,90.50
2019-02-17T00:52:38.754Z,90.70
2019-02-17T00:53:38.699Z,91.12
2019-02-17T00:54:38.773Z,90.97
2019-02-17T00:55:38.633Z,89.93
2019-02-17T00:56:38.688Z,89.72
2019-02-17T00:57:38.612Z,90.03
2019-02-17T00:58:38.726Z,90.08
2019-02-17T00:59:38.590Z,90.39
2019-02-17T01:00:38.607Z,89.20
2019-02-17T01:01:38.579Z,89.31
2019-02-17T01:02:38.645Z,89.93
2019-02-17T01:03:38.582Z,89.97
2019-02-17T01:04:38.645Z,90.50
2019-02-17T01:05:38.531Z,89.14
2019-02-17T01:06:38.565Z,89.14
2019-02-17T01:07:38.507Z,90.08
2019-02-17T01:08:38.598Z,89.45
2019-02-17T01:09:38.482Z,89.49
2019-02-17T01:10:38.596Z,90.53
2019-02-17T01:11:38.464Z,89.70
2019-02-17T01:12:38.487Z,90.33
2019-02-17T01:13:38.474Z,90.22
2019-02-17T01:14:38.500Z,90.12
2019-02-17T01:15:38.409Z,91.16
2019-02-17T01:16:38.522Z,90.85
2019-02-17T01:17:38.400Z,90.37
2019-02-17T01:18:38.463Z,90.16
2019-02-17T01:19:38.371Z,90.16
2019-02-17T01:20:38.443Z,90.31
2019-02-17T01:21:38.351Z,90.89
2019-02-17T01:22:38.467Z,90.62
2019-02-17T01:23:38.353Z,91.20
2019-02-17T01:24:38.366Z,91.14
2019-02-17T01:25:38.316Z,91.25
2019-02-17T01:26:38.379Z,91.25
2019-02-17T01:27:38.280Z,91.14
2019-02-17T01:28:38.323Z,91.14
2019-02-17T01:29:38.253Z,91.35
2019-02-17T01:30:38.311Z,91.77
2019-02-17T01:31:38.232Z,91.66
2019-02-17T01:32:38.318Z,91.98
2019-02-17T01:33:38.213Z,91.66
2019-02-17T01:34:38.262Z,91.98
2019-02-17T01:35:38.193Z,91.14
2019-02-17T01:36:38.244Z,91.39
2019-02-17T01:37:38.171Z,91.91
2019-02-17T01:38:38.259Z,92.44
2019-02-17T01:39:38.174Z,91.71
2019-02-17T01:40:38.171Z,92.13
2019-02-17T01:41:38.123Z,91.60
2019-02-17T01:42:38.185Z,92.23
2019-02-17T01:43:38.105Z,92.54
2019-02-17T01:44:38.239Z,92.54
2019-02-17T01:45:38.091Z,91.91
2019-02-17T01:46:38.576Z,92.44
2019-02-17T01:47:38.059Z,92.65
2019-02-17T01:48:38.125Z,92.44
2019-02-17T01:49:38.064Z,92.02
2019-02-17T01:50:38.136Z,92.02
2019-02-17T01:51:38.016Z,92.44
2019-02-17T01:52:38.064Z,92.44
2019-02-17T01:53:38.000Z,91.91
2019-02-17T01:54:38.088Z,92.13
2019-02-17T01:55:37.969Z,91.60
2019-02-17T01:56:38.117Z,91.91
2019-02-17T01:57:37.949Z,92.65
2019-02-17T01:58:37.989Z,92.65
2019-02-17T01:59:37.948Z,92.75
2019-02-17T02:00:38.000Z,93.17
2019-02-17T02:01:37.904Z,92.79
2019-02-17T02:02:38.098Z,93.17
2019-02-17T02:03:37.952Z,93.21
2019-02-17T02:04:37.953Z,93.11
2019-02-17T02:05:37.863Z,93.01
2019-02-17T02:06:37.947Z,93.11
2019-02-17T02:07:37.852Z,93.42
2019-02-17T02:08:37.957Z,93.52
2019-02-17T02:09:37.823Z,92.58
2019-02-17T02:10:38.100Z,92.90
2019-02-17T02:11:37.794Z,92.79
2019-02-17T02:12:38.214Z,92.90
2019-02-17T02:13:37.785Z,93.63
2019-02-17T02:14:38.321Z,93.21
2019-02-17T02:15:37.795Z,93.52
2019-02-17T02:16:37.812Z,93.32
2019-02-17T02:17:37.737Z,93.52
2019-02-17T02:19:38.842Z,93.11
2019-02-17T02:20:37.727Z,93.21
2019-02-17T02:21:37.688Z,93.32
2019-02-17T02:23:38.791Z,93.01
2019-02-17T02:24:37.776Z,92.48
2019-02-17T02:25:37.665Z,92.69
2019-02-17T02:27:38.756Z,91.64
2019-02-17T02:29:41.103Z,92.16
2019-02-17T02:30:38.578Z,92.16
2019-02-17T02:31:37.579Z,91.96
2019-02-17T02:33:38.706Z,93.52
2019-02-17T02:35:38.694Z,93.11
2019-02-17T02:37:38.658Z,92.79
2019-02-17T02:39:38.684Z,92.48
2019-02-17T02:40:38.842Z,93.11
2019-02-17T02:41:37.473Z,93.04
2019-02-17T02:43:38.585Z,93.26
2019-02-17T02:44:37.487Z,93.63
2019-02-17T02:45:37.489Z,93.36
2019-02-17T02:47:38.539Z,93.46
2019-02-17T02:49:38.524Z,92.94
2019-02-17T02:51:38.550Z,92.94
2019-02-17T02:53:38.502Z,92.94
2019-02-17T02:55:38.478Z,92.83
2019-02-17T02:56:38.627Z,93.15
2019-02-17T02:57:37.294Z,93.36
2019-02-17T02:59:38.432Z,92.57
2019-02-17T03:01:38.400Z,92.57
2019-02-17T03:02:37.775Z,92.73
2019-02-17T03:03:37.253Z,92.46
2019-02-17T03:05:38.341Z,93.19
2019-02-17T03:06:38.825Z,92.98
2019-02-17T03:07:37.185Z,93.08
2019-02-17T03:08:38.894Z,93.57
2019-02-17T03:09:37.174Z,93.40
2019-02-17T03:10:38.897Z,93.93
2019-02-17T03:11:37.218Z,93.71
2019-02-17T03:12:38.918Z,93.19
2019-02-17T03:13:37.122Z,93.19
2019-02-17T03:14:39.046Z,93.51
2019-02-17T03:15:37.103Z,94.03
2019-02-17T03:16:39.073Z,93.93
2019-02-17T03:17:37.107Z,93.93
2019-02-17T03:18:39.077Z,93.93
2019-02-17T03:19:37.055Z,94.09
2019-02-17T03:20:39.172Z,93.82
2019-02-17T03:21:37.058Z,94.13
2019-02-17T03:22:39.229Z,94.56
2019-02-17T03:23:37.008Z,94.82
2019-02-17T03:24:39.221Z,94.30
2019-02-17T03:25:36.987Z,94.82
2019-02-17T03:26:39.215Z,94.51
2019-02-17T03:27:37.000Z,94.09
2019-02-17T03:28:39.229Z,94.03
2019-02-17T03:29:36.948Z,94.09
2019-02-17T03:30:38.878Z,94.40
2019-02-17T03:31:36.964Z,94.20
2019-02-17T03:32:39.288Z,94.51
2019-02-17T03:33:36.912Z,94.20
2019-02-17T03:34:39.271Z,94.51
2019-02-17T03:35:36.890Z,94.09
2019-02-17T03:36:39.289Z,94.40
2019-02-17T03:37:36.975Z,93.88
2019-02-17T03:38:39.298Z,93.99
2019-02-17T03:39:36.855Z,93.78
2019-02-17T03:40:39.414Z,94.09
2019-02-17T03:41:36.807Z,93.67
2019-02-17T03:42:39.461Z,93.99
2019-02-17T03:43:36.788Z,93.57
2019-02-17T03:44:39.442Z,93.67
2019-02-17T03:45:36.784Z,93.71
2019-02-17T03:46:39.561Z,93.67
2019-02-17T03:47:36.780Z,93.82
2019-02-17T03:49:37.864Z,94.13
2019-02-17T03:51:37.836Z,93.99
2019-02-17T03:53:37.864Z,94.87
2019-02-17T03:55:37.799Z,94.62
2019-02-17T03:57:37.777Z,95.18
2019-02-17T03:58:39.983Z,94.82
2019-02-17T03:59:36.619Z,94.34
2019-02-17T04:01:37.728Z,93.71
2019-02-17T04:03:37.764Z,94.56
2019-02-17T04:05:37.683Z,94.87
2019-02-17T04:07:37.660Z,94.87
2019-02-17T04:08:40.306Z,94.97
2019-02-17T04:09:36.508Z,95.14
2019-02-17T04:10:41.211Z,94.72
2019-02-17T04:11:36.495Z,94.93
2019-02-17T04:12:41.209Z,95.29
2019-02-17T04:13:36.499Z,95.18
2019-02-17T04:14:40.367Z,94.97
2019-02-17T04:15:36.506Z,94.82
2019-02-17T04:16:40.381Z,94.87
2019-02-17T04:17:36.436Z,94.76
2019-02-17T04:18:40.531Z,94.87
2019-02-17T04:19:36.411Z,94.40
2019-02-17T04:21:36.379Z,95.14
2019-02-17T04:23:36.360Z,94.97
2019-02-17T04:24:40.575Z,94.76
2019-02-17T04:25:36.358Z,94.82
2019-02-17T04:26:38.924Z,95.07
2019-02-17T04:27:36.319Z,94.97
2019-02-17T04:28:38.424Z,94.97
2019-02-17T04:29:36.316Z,95.18
2019-02-17T04:30:38.437Z,94.97
2019-02-17T04:31:36.280Z,94.76
2019-02-17T04:33:37.390Z,95.25
2019-02-17T04:34:36.340Z,94.93
2019-02-17T04:35:36.222Z,95.07
2019-02-17T04:36:36.324Z,95.25
2019-02-17T04:37:36.219Z,95.25
2019-02-17T04:38:36.233Z,94.97
2019-02-17T04:39:36.201Z,95.14
2019-02-17T04:40:36.245Z,94.82
2019-02-17T04:41:36.159Z,95.25
2019-02-17T04:42:36.262Z,95.25
2019-02-17T04:43:36.144Z,94.82
2019-02-17T04:44:36.193Z,94.97
2019-02-17T04:45:36.116Z,95.14
2019-02-17T04:46:36.189Z,94.66
2019-02-17T04:47:36.105Z,95.18
2019-02-17T04:48:36.208Z,94.24
2019-02-17T04:49:36.101Z,94.66
2019-02-17T04:50:36.113Z,94.56
2019-02-17T04:51:36.054Z,94.24
2019-02-17T04:52:36.127Z,94.56
2019-02-17T04:53:36.047Z,94.56
2019-02-17T04:54:36.169Z,94.56
2019-02-17T04:55:36.017Z,95.29
2019-02-17T04:56:36.049Z,95.18
2019-02-17T04:57:36.017Z,94.24
2019-02-17T04:58:36.068Z,94.60
2019-02-17T04:59:35.987Z,94.13
2019-02-17T05:00:40.177Z,94.87
2019-02-17T05:01:35.947Z,94.66
2019-02-17T05:02:35.985Z,94.81
2019-02-17T05:03:35.925Z,94.70
2019-02-17T05:04:36.000Z,94.91
2019-02-17T05:05:35.925Z,94.28
2019-02-17T05:06:36.018Z,94.56
2019-02-17T05:07:35.882Z,95.12
2019-02-17T05:08:35.937Z,94.91
2019-02-17T05:09:35.858Z,95.33
2019-02-17T05:10:35.965Z,94.91
2019-02-17T05:11:35.831Z,95.12
2019-02-17T05:12:35.853Z,94.91
2019-02-17T05:13:35.897Z,95.01
2019-02-17T05:14:35.880Z,95.01
2019-02-17T05:15:35.820Z,94.81
2019-02-17T05:16:35.929Z,95.01
2019-02-17T05:17:35.769Z,94.70
2019-02-17T05:18:35.795Z,94.91
2019-02-17T05:19:35.747Z,94.91
2019-02-17T05:20:35.817Z,94.95
2019-02-17T05:21:35.752Z,95.23
2019-02-17T05:22:39.209Z,95.33
2019-02-17T05:23:35.706Z,95.96
2019-02-17T05:24:35.737Z,95.64
2019-02-17T05:25:35.681Z,95.64
2019-02-17T05:26:35.773Z,95.64
2019-02-17T05:27:35.673Z,95.43
2019-02-17T05:28:35.769Z,95.54
2019-02-17T05:29:35.640Z,96.27
2019-02-17T05:30:35.691Z,95.64
2019-02-17T05:31:35.660Z,95.68
2019-02-17T05:32:35.689Z,96.21
2019-02-17T05:33:35.608Z,96.31
2019-02-17T05:34:35.698Z,96.42
2019-02-17T05:35:35.582Z,96.17
2019-02-17T05:36:35.659Z,96.59
2019-02-17T05:37:35.560Z,96.48
2019-02-17T05:38:35.628Z,96.80
2019-02-17T05:39:35.535Z,97.32
2019-02-17T05:40:36.528Z,97.32
2019-02-17T05:41:35.549Z,97.32
2019-02-17T05:42:35.578Z,96.48
2019-02-17T05:43:35.486Z,96.27
2019-02-17T05:44:35.564Z,96.69
2019-02-17T05:45:35.466Z,96.48
2019-02-17T05:46:35.579Z,96.80
2019-02-17T05:47:35.476Z,96.59
2019-02-17T05:48:35.485Z,96.59
2019-02-17T05:49:35.433Z,96.06
2019-02-17T05:50:35.504Z,96.69
2019-02-17T05:51:35.401Z,96.80
2019-02-17T05:52:35.438Z,96.37
2019-02-17T05:53:35.379Z,96.27
2019-02-17T05:54:35.422Z,96.69
2019-02-17T05:55:35.353Z,96.59
2019-02-17T05:56:35.444Z,96.37
2019-02-17T05:57:35.369Z,95.75
2019-02-17T05:58:35.347Z,96.06
2019-02-17T05:59:35.327Z,96.48
2019-02-17T06:00:35.363Z,96.37
2019-02-17T06:01:35.294Z,96.27
2019-02-17T06:02:35.419Z,95.79
2019-02-17T06:03:35.275Z,96.21
2019-02-17T06:04:35.305Z,96.11
2019-02-17T06:05:35.249Z,95.68
2019-02-17T06:06:35.305Z,95.79
2019-02-17T06:07:35.226Z,95.79
2019-02-17T06:08:35.347Z,95.27
2019-02-17T06:09:35.213Z,95.17
2019-02-17T06:10:35.230Z,95.06
2019-02-17T06:11:35.181Z,95.27
2019-02-17T06:12:35.247Z,95.00
2019-02-17T06:13:35.221Z,94.89
2019-02-17T06:14:35.256Z,95.21
2019-02-17T06:15:35.144Z,95.00
2019-02-17T06:16:35.185Z,95.21
2019-02-17T06:17:35.116Z,95.84
2019-02-17T06:18:35.222Z,95.52
2019-02-17T06:19:35.096Z,95.84
2019-02-17T06:20:35.204Z,95.73
2019-02-17T06:21:35.073Z,95.73
2019-02-17T06:22:35.108Z,96.25
2019-02-17T06:23:35.086Z,95.62
2019-02-17T06:24:35.120Z,96.36
2019-02-17T06:25:35.039Z,96.47
2019-02-17T06:26:35.134Z,96.47
2019-02-17T06:27:35.007Z,96.15
2019-02-17T06:28:35.052Z,96.47
2019-02-17T06:29:35.085Z,96.67
2019-02-17T06:30:35.065Z,96.36
2019-02-17T06:31:34.962Z,96.15
2019-02-17T06:32:35.077Z,96.25
2019-02-17T06:33:34.976Z,96.25
2019-02-17T06:34:34.989Z,96.57
2019-02-17T06:35:34.926Z,96.36
2019-02-17T06:36:35.004Z,96.04
2019-02-17T06:37:34.900Z,96.15
2019-02-17T06:38:35.016Z,96.36
2019-02-17T06:39:34.903Z,96.25
2019-02-17T06:40:34.935Z,96.47
2019-02-17T06:41:34.870Z,96.47
2019-02-17T06:42:34.939Z,96.36
2019-02-17T06:43:34.836Z,96.15
2019-02-17T06:44:34.865Z,96.15
2019-02-17T06:45:34.818Z,96.25
2019-02-17T06:46:34.869Z,96.25
2019-02-17T06:47:34.789Z,96.47
2019-02-17T06:48:34.878Z,96.36
2019-02-17T06:49:34.803Z,96.67
2019-02-17T06:50:34.790Z,96.25
2019-02-17T06:51:34.753Z,96.36
2019-02-17T06:52:34.806Z,96.25
2019-02-17T06:53:34.738Z,96.57
2019-02-17T06:54:34.849Z,96.57
2019-02-17T06:55:34.713Z,96.47
2019-02-17T06:56:34.728Z,96.47
2019-02-17T06:57:34.697Z,96.57
2019-02-17T06:58:34.743Z,96.25
2019-02-17T06:59:34.707Z,95.94
2019-02-17T07:00:34.761Z,95.94
2019-02-17T07:01:34.647Z,96.04
2019-02-17T07:02:34.673Z,96.36
2019-02-17T07:03:34.636Z,96.57
2019-02-17T07:04:34.730Z,96.36
2019-02-17T07:05:34.610Z,96.36
2019-02-17T07:06:34.704Z,96.21
2019-02-17T07:07:34.581Z,96.63
2019-02-17T07:08:34.620Z,96.73
2019-02-17T07:09:34.586Z,96.73
2019-02-17T07:10:34.645Z,96.84
2019-02-17T07:11:34.536Z,96.90
2019-02-17T07:12:34.636Z,97.26
2019-02-17T07:13:34.517Z,96.80
2019-02-17T07:14:34.595Z,96.59
2019-02-17T07:15:34.524Z,96.27
2019-02-17T07:16:34.564Z,96.59
2019-02-17T07:17:34.471Z,96.48
2019-02-17T07:18:34.578Z,96.69
2019-02-17T07:19:34.472Z,96.48
2019-02-17T07:20:34.517Z,96.55
2019-02-17T07:21:34.429Z,96.75
2019-02-17T07:22:34.428Z,96.96
2019-02-17T07:23:34.403Z,96.96
2019-02-17T07:24:34.516Z,96.65
2019-02-17T07:25:34.407Z,97.38
2019-02-17T07:26:34.375Z,97.17
2019-02-17T07:27:34.414Z,97.17
2019-02-17T07:28:34.439Z,97.34
2019-02-17T07:29:34.346Z,97.28
2019-02-17T07:30:34.487Z,97.34
2019-02-17T07:31:35.318Z,97.44
2019-02-17T07:32:34.365Z,97.08
2019-02-17T07:33:34.319Z,97.29
2019-02-17T07:34:34.383Z,96.98
2019-02-17T07:35:34.307Z,96.98
2019-02-17T07:36:34.299Z,97.19
2019-02-17T07:37:34.252Z,96.94
2019-02-17T07:38:34.311Z,97.04
2019-02-17T07:39:34.240Z,96.31
2019-02-17T07:40:34.374Z,96.41
2019-02-17T07:41:34.212Z,96.41
2019-02-17T07:42:34.232Z,95.99
2019-02-17T07:43:34.273Z,95.74
2019-02-17T07:44:34.245Z,95.84
2019-02-17T07:45:34.191Z,95.84
2019-02-17T07:46:34.287Z,95.64
2019-02-17T07:47:34.171Z,95.95
2019-02-17T07:48:34.386Z,96.11
2019-02-17T07:49:34.120Z,96.11
2019-02-17T07:50:34.182Z,95.28
2019-02-17T07:51:34.121Z,94.92
2019-02-17T07:52:34.406Z,95.44
2019-02-17T07:53:34.087Z,95.55
2019-02-17T07:54:34.153Z,94.82
2019-02-17T07:55:34.057Z,94.82
2019-02-17T07:56:34.157Z,94.67
2019-02-17T07:57:34.033Z,94.98
2019-02-17T07:58:34.147Z,93.73
2019-02-17T07:59:34.012Z,94.35
2019-02-17T08:00:34.074Z,93.90
2019-02-17T08:01:34.023Z,93.63
2019-02-17T08:02:34.060Z,93.69
2019-02-17T08:03:33.968Z,93.37
2019-02-17T08:04:34.078Z,92.75
2019-02-17T08:05:33.954Z,92.65
2019-02-17T08:06:34.097Z,92.81
2019-02-17T08:07:33.954Z,92.29
2019-02-17T08:08:34.014Z,91.46
2019-02-17T08:09:33.899Z,91.41
2019-02-17T08:10:33.913Z,91.10
2019-02-17T08:11:33.883Z,90.54
2019-02-17T08:12:33.958Z,90.64
2019-02-17T08:13:33.855Z,89.91
2019-02-17T08:14:33.939Z,90.22
2019-02-17T08:15:33.838Z,89.87
2019-02-17T08:16:33.889Z,89.66
2019-02-17T08:17:33.845Z,89.94
2019-02-17T08:18:33.864Z,89.04
2019-02-17T08:19:33.807Z,88.68
2019-02-17T08:20:33.879Z,88.48
2019-02-17T08:21:33.764Z,88.68
2019-02-17T08:22:33.817Z,88.48
2019-02-17T08:23:33.752Z,88.48
2019-02-17T08:24:33.805Z,88.37
2019-02-17T08:25:33.728Z,88.12
2019-02-17T08:26:33.817Z,88.06
2019-02-17T08:27:33.744Z,87.96
2019-02-17T08:28:33.739Z,88.02
2019-02-17T08:29:33.675Z,87.96
2019-02-17T08:30:33.671Z,88.02
2019-02-17T08:31:33.655Z,88.02
2019-02-17T08:32:33.689Z,87.81
2019-02-17T08:33:33.635Z,87.98
2019-02-17T08:34:33.966Z,87.35
2019-02-17T08:35:33.614Z,87.66
2019-02-17T08:36:33.709Z,86.80
2019-02-17T08:37:33.631Z,86.07
2019-02-17T08:38:33.696Z,85.65
2019-02-17T08:39:33.569Z,85.61
2019-02-17T08:40:33.610Z,84.89
2019-02-17T08:41:33.553Z,84.99
2019-02-17T08:42:33.659Z,84.27
2019-02-17T08:43:33.530Z,84.12
2019-02-17T08:44:33.637Z,84.64
2019-02-17T08:45:33.502Z,83.87
2019-02-17T08:46:33.547Z,83.36
2019-02-17T08:47:33.510Z,83.15
2019-02-17T08:48:34.692Z,83.56
2019-02-17T08:53:38.658Z,82.49
2019-02-17T08:54:31.587Z,82.49
2019-02-17T08:56:32.723Z,82.14
2019-02-17T08:58:32.648Z,81.93
2019-02-17T09:00:32.609Z,81.68
2019-02-17T09:02:32.588Z,81.16
2019-02-17T09:03:33.183Z,81.44
2019-02-17T09:04:31.419Z,80.92
2019-02-17T09:05:43.620Z,80.51
2019-02-17T09:06:32.397Z,79.99
2019-02-17T09:07:33.288Z,80.05
2019-02-17T09:08:31.436Z,79.40
2019-02-17T09:09:33.438Z,78.99
2019-02-17T09:10:31.424Z,78.74
2019-02-17T09:11:33.439Z,78.85
2019-02-17T09:12:31.340Z,79.16
2019-02-17T09:13:33.565Z,78.43
2019-02-17T09:14:31.352Z,79.02
2019-02-17T09:15:33.439Z,79.43
2019-02-17T09:16:31.303Z,78.60
2019-02-17T09:17:33.463Z,77.56
2019-02-17T09:18:31.271Z,77.98
2019-02-17T09:19:33.506Z,78.25
2019-02-17T09:20:31.266Z,77.53
2019-02-17T09:21:33.483Z,77.33
2019-02-17T09:22:31.237Z,76.87
2019-02-17T09:24:32.369Z,76.98
2019-02-17T09:26:32.325Z,77.36
2019-02-17T09:28:32.325Z,76.84
2019-02-17T09:29:33.476Z,76.32
2019-02-17T09:30:31.146Z,76.60
2019-02-17T09:31:33.458Z,76.60
2019-02-17T09:32:31.133Z,77.11
2019-02-17T09:33:33.568Z,77.11
2019-02-17T09:34:31.165Z,76.70
2019-02-17T09:35:33.482Z,76.35
2019-02-17T09:36:31.081Z,75.63
2019-02-17T09:37:33.498Z,75.74
2019-02-17T09:38:31.067Z,75.39
2019-02-17T09:39:32.415Z,75.63
2019-02-17T09:40:31.053Z,75.18
2019-02-17T09:42:32.184Z,75.15
2019-02-17T09:44:32.131Z,75.15
2019-02-17T09:45:33.579Z,75.26
2019-02-17T09:46:30.995Z,75.05
2019-02-17T09:48:32.160Z,73.98
2019-02-17T09:50:32.115Z,73.68
2019-02-17T09:52:32.050Z,73.74
2019-02-17T09:54:32.040Z,73.40
2019-02-17T09:55:34.171Z,72.64
2019-02-17T09:56:30.863Z,73.06
2019-02-17T09:58:31.991Z,73.64
2019-02-17T10:00:32.033Z,72.09
2019-02-17T10:02:31.965Z,71.86
2019-02-17T10:04:32.004Z,71.24
2019-02-17T10:05:34.538Z,71.51
2019-02-17T10:06:30.753Z,70.79
2019-02-17T10:08:31.868Z,69.87
2019-02-17T10:10:31.895Z,70.36
2019-02-17T10:12:16.634Z,69.43
2019-02-17T10:12:32.156Z,69.19
2019-02-17T10:13:30.719Z,68.78
2019-02-17T10:15:30.678Z,69.16
2019-02-17T10:16:35.970Z,68.65
2019-02-17T10:17:30.630Z,68.75
2019-02-17T10:19:30.617Z,69.16
2019-02-17T10:20:32.672Z,68.82
2019-02-17T10:21:30.623Z,68.99
2019-02-17T10:22:32.782Z,68.99
2019-02-17T10:23:30.574Z,68.79
2019-02-17T10:25:31.704Z,67.32
2019-02-17T10:26:30.690Z,67.02
2019-02-17T10:27:30.555Z,65.65
2019-02-17T10:28:30.567Z,63.70
2019-02-17T10:29:30.510Z,61.45
2019-02-17T10:30:30.583Z,61.11
2019-02-17T10:31:30.526Z,59.76
2019-02-17T10:32:38.403Z,60.24
2019-02-17T10:33:31.471Z,60.96
2019-02-17T10:34:30.500Z,60.52
2019-02-17T10:35:30.459Z,59.53
2019-02-17T10:36:30.544Z,59.60
2019-02-17T10:37:30.414Z,58.45
2019-02-17T10:38:30.544Z,56.81
2019-02-17T10:39:30.393Z,57.22
2019-02-17T10:41:31.581Z,56.89
2019-02-17T10:42:30.457Z,56.38
2019-02-17T10:43:30.358Z,56.79
2019-02-17T10:44:30.369Z,56.04
2019-02-17T10:45:30.327Z,56.45
2019-02-17T10:46:30.385Z,56.53
2019-02-17T10:47:30.329Z,56.32
2019-02-17T10:48:30.399Z,55.30
2019-02-17T10:49:30.294Z,55.20
2019-02-17T10:50:30.308Z,54.59
2019-02-17T10:51:30.267Z,55.38
2019-02-17T10:52:30.361Z,54.57
2019-02-17T10:53:30.237Z,54.77
2019-02-17T10:54:30.343Z,54.97
2019-02-17T10:55:30.223Z,55.07
2019-02-17T10:56:30.247Z,54.74
2019-02-17T10:57:30.221Z,53.55
2019-02-17T10:58:30.265Z,54.36
2019-02-17T10:59:30.183Z,54.74
2019-02-17T11:00:30.273Z,54.33
2019-02-17T11:01:30.168Z,53.19
2019-02-17T11:02:30.246Z,54.03
2019-02-17T11:03:30.137Z,54.61
2019-02-17T11:04:30.217Z,53.80
2019-02-17T11:05:30.124Z,53.19
2019-02-17T11:06:30.215Z,52.55
2019-02-17T11:07:30.122Z,52.66
2019-02-17T11:08:30.438Z,52.35
2019-02-17T11:09:30.100Z,52.33
2019-02-17T11:10:30.142Z,52.66
2019-02-17T11:11:30.039Z,50.90
2019-02-17T11:12:30.183Z,52.02
2019-02-17T11:13:30.022Z,51.41
2019-02-17T11:14:30.097Z,52.33
2019-02-17T11:15:30.001Z,52.22
2019-02-17T11:16:30.078Z,53.04
2019-02-17T11:17:30.028Z,52.81
2019-02-17T11:18:30.092Z,52.61
2019-02-17T11:19:29.956Z,52.50
2019-02-17T11:20:30.004Z,51.89
2019-02-17T11:21:29.931Z,51.18
2019-02-17T11:22:30.057Z,51.16
2019-02-17T11:23:29.941Z,49.73
2019-02-17T11:24:29.946Z,52.68
2019-02-17T11:25:29.895Z,49.63
2019-02-17T11:26:30.058Z,49.22
2019-02-17T11:27:29.868Z,49.81
2019-02-17T11:28:29.994Z,50.62
2019-02-17T11:29:29.862Z,50.12
2019-02-17T11:30:29.969Z,50.32
2019-02-17T11:31:29.829Z,49.30
2019-02-17T11:32:32.115Z,49.69
2019-02-17T11:33:29.831Z,50.20
2019-02-17T11:34:29.900Z,49.79
2019-02-17T11:35:30.041Z,48.87
2019-02-17T11:36:29.806Z,47.96
2019-02-17T11:37:29.764Z,48.97
2019-02-17T11:38:29.860Z,48.75
2019-02-17T11:39:29.771Z,49.46
2019-02-17T11:40:29.837Z,49.16
2019-02-17T11:41:29.715Z,48.44
2019-02-17T11:42:29.751Z,47.43
2019-02-17T11:43:29.689Z,47.53
2019-02-17T11:44:31.872Z,46.31
2019-02-17T11:45:29.705Z,46.41
2019-02-17T11:46:29.776Z,47.81
2019-02-17T11:47:29.651Z,47.00
2019-02-17T11:48:29.697Z,46.59
2019-02-17T11:49:29.659Z,47.38
2019-02-17T11:50:29.707Z,46.06
2019-02-17T11:51:29.612Z,45.86
2019-02-17T11:52:29.716Z,45.05
2019-02-17T11:53:29.615Z,45.86
2019-02-17T11:54:29.654Z,44.74
2019-02-17T11:55:29.566Z,44.95
2019-02-17T11:56:29.646Z,45.15
2019-02-17T11:57:29.542Z,43.81
2019-02-17T11:58:29.739Z,45.15
2019-02-17T11:59:29.555Z,44.22
2019-02-17T12:00:29.565Z,46.25
2019-02-17T12:01:29.495Z,45.23
2019-02-17T12:02:29.578Z,46.04
2019-02-17T12:03:29.485Z,45.94
2019-02-17T12:04:29.742Z,45.11
2019-02-17T12:05:29.454Z,45.31
2019-02-17T12:06:29.505Z,45.62
2019-02-17T12:07:29.429Z,43.69
2019-02-17T12:08:29.532Z,43.69
2019-02-17T12:09:29.438Z,44.81
2019-02-17T12:10:29.543Z,45.01
2019-02-17T12:11:29.390Z,45.19
2019-02-17T12:12:29.445Z,44.89
2019-02-17T12:13:29.374Z,45.29
2019-02-17T12:14:29.515Z,43.77
2019-02-17T12:15:29.381Z,43.77
2019-02-17T12:16:36.687Z,43.77
2019-02-17T12:17:30.327Z,45.17
2019-02-17T12:18:29.514Z,45.07
2019-02-17T12:19:29.308Z,43.75
2019-02-17T12:20:29.412Z,43.75
2019-02-17T12:21:29.317Z,43.32
2019-02-17T12:22:29.308Z,43.93
2019-02-17T12:23:29.318Z,43.43
2019-02-17T12:24:29.365Z,43.43
2019-02-17T12:25:29.250Z,43.32
2019-02-17T12:26:29.367Z,43.41
2019-02-17T12:27:29.210Z,43.71
2019-02-17T12:28:29.250Z,43.20
2019-02-17T12:29:29.198Z,42.90
2019-02-17T12:30:29.405Z,43.91
2019-02-17T12:31:29.171Z,44.12
2019-02-17T12:32:29.302Z,42.60
2019-02-17T12:33:29.145Z,42.09
2019-02-17T12:34:29.195Z,42.40
2019-02-17T12:35:29.172Z,42.80
2019-02-17T12:36:29.207Z,43.20
2019-02-17T12:37:29.109Z,43.49
2019-02-17T12:38:29.226Z,43.89
2019-02-17T12:39:29.082Z,44.49
2019-02-17T12:40:29.131Z,44.40
2019-02-17T12:41:29.199Z,44.20
2019-02-17T12:42:29.174Z,42.78
2019-02-17T12:43:29.038Z,42.68
2019-02-17T12:44:29.165Z,42.27
2019-02-17T12:45:29.046Z,43.38
2019-02-17T12:46:29.100Z,42.88
2019-02-17T12:47:28.992Z,43.29
2019-02-17T12:48:29.095Z,42.68
2019-02-17T12:49:28.979Z,42.46
2019-02-17T12:50:28.997Z,42.96
2019-02-17T12:51:28.982Z,43.06
2019-02-17T12:52:29.002Z,42.58
2019-02-17T12:53:28.939Z,42.76
2019-02-17T12:54:29.555Z,43.06
2019-02-17T12:55:28.912Z,41.24
2019-02-17T12:56:28.962Z,41.85
2019-02-17T12:57:28.886Z,40.84
2019-02-17T12:58:30.251Z,41.24
2019-02-17T12:59:28.936Z,39.52
2019-02-17T13:00:28.962Z,40.53
2019-02-17T13:01:28.891Z,41.44
2019-02-17T13:02:28.905Z,41.12
2019-02-17T13:03:28.974Z,42.94
2019-02-17T13:04:28.891Z,42.43
2019-02-17T13:05:28.796Z,40.92
2019-02-17T13:06:28.902Z,39.40
2019-02-17T13:07:28.808Z,40.52
2019-02-17T13:08:28.829Z,40.41
2019-02-17T13:09:28.755Z,41.02
2019-02-17T13:10:28.844Z,41.30
2019-02-17T13:11:28.765Z,41.32
2019-02-17T13:12:28.948Z,41.02
2019-02-17T13:13:28.707Z,41.41
2019-02-17T13:14:28.746Z,41.42
2019-02-17T13:15:28.696Z,41.30
2019-02-17T13:16:28.760Z,42.52
2019-02-17T13:17:28.694Z,41.41
2019-02-17T13:18:28.791Z,41.30
2019-02-17T13:19:28.640Z,41.20
2019-02-17T13:20:28.686Z,41.20
2019-02-17T13:21:28.621Z,40.50
2019-02-17T13:22:28.764Z,41.20
2019-02-17T13:23:28.603Z,40.58
2019-02-17T13:24:28.678Z,40.90
2019-02-17T13:25:28.587Z,38.07
2019-02-17T13:26:28.629Z,38.48
2019-02-17T13:27:28.598Z,39.39
2019-02-17T13:28:28.647Z,37.77
2019-02-17T13:29:28.533Z,38.57
2019-02-17T13:30:28.748Z,36.55
2019-02-17T13:31:28.520Z,38.17
2019-02-17T13:32:28.598Z,38.46
2019-02-17T13:33:38.559Z,38.26
2019-02-17T13:34:29.497Z,36.64
2019-02-17T13:35:28.591Z,37.15
2019-02-17T13:36:28.457Z,37.75
2019-02-17T13:37:30.214Z,38.35
2019-02-17T13:38:28.472Z,39.25
2019-02-17T13:39:28.514Z,39.75
2019-02-17T13:40:28.426Z,39.17
2019-02-17T13:41:28.528Z,38.26
2019-02-17T13:42:28.395Z,38.34
2019-02-17T13:43:28.467Z,37.65
2019-02-17T13:44:28.371Z,37.45
2019-02-17T13:45:28.453Z,38.24
2019-02-17T13:46:28.349Z,37.95
2019-02-17T13:47:28.465Z,38.56
2019-02-17T13:48:28.355Z,37.04